OIHH 
Hamadan Airport
Hamadan, Iran 
ICAOIATAStatus
OIHHHDMOperational
LatitudeLongitude
34° 52' 9" N48° 33' 9" E
34.86920248.552502
Local Time (DST+5)UTC (GMT+4)
04-21-2014 09:02 am04-21-2014 04:32
Sunrise-SunsetLocalUTC
Begin Civil Twilight06:08 am01:38
Sunrise06:34 am02:04
Sunset07:54 pm15:24
End Civil Twilight08:20 pm15:50

Current Weather

METARObservedFlight Conditions

OIHH 201100Z 36004KT 9999 FEW040 BKN170 22/02 Q1020

Sun, Apr 20, 2014 @ 11:00 UTC(Z)

(17 Hours, 32 Minutes ago)

VFR

(Visual Flight Rules)

WindVisibilityCloudsConditions
360° at 4 knots (7 kph)
10 km or more
  • Few at 4,000' AGL
  • Broken at 17,000' AGL
  • No significant weather
TemperaturesReadingsPrecipitation
Current Temp22°C (72°F)
Dewpoint2°C (36°F)
Humidity27%
Altimeter30.12"Hg
Sea Level Pressure1020mb
Field Elevation5764.44'
None Recorded

Additional weather within a 185.2km radius of OIHH

Location METAR
OICC

140.2km W (246°)

32 minutes ago
OICS

146.5km W (287°)

32 minutes ago
VFR VFR    MVFR MVFR    IFR IFR    LIFR LIFR    Unknown Unknown

Previous 24 hour Weather Graphs

  Loading...

CheckWX.com is intended as a tool to help pilots better visualize weather data.   It is not intended as a substitute for an official weather briefing obtained from a Flight Service Station.
CheckWX.com does not meet the FAA requirements for an official pre-flight weather briefing.   Therefore, it's important that pilots still call and obtain an official FSS pre-flight weather briefing.